createdAt,value
2022-09-18T00:01:35.522Z,13.20
2022-09-18T00:04:08.487Z,12.90
2022-09-18T00:06:40.004Z,12.70
2022-09-18T00:09:09.397Z,12.70
2022-09-18T00:11:48.189Z,12.90
2022-09-18T00:14:18.516Z,13.10
2022-09-18T00:16:46.410Z,13.00
2022-09-18T00:19:15.318Z,13.10
2022-09-18T00:21:46.788Z,12.90
2022-09-18T00:24:24.612Z,12.90
2022-09-18T00:26:55.351Z,12.90
2022-09-18T00:29:23.212Z,12.90
2022-09-18T00:31:56.489Z,13.10
2022-09-18T00:34:24.471Z,13.20
2022-09-18T00:36:53.638Z,13.20
2022-09-18T00:39:26.410Z,13.00
2022-09-18T00:41:54.244Z,12.90
2022-09-18T00:44:36.641Z,12.80
2022-09-18T00:47:18.477Z,12.80
2022-09-18T00:49:52.435Z,12.90
2022-09-18T00:52:32.301Z,12.80
2022-09-18T00:55:08.995Z,12.90
2022-09-18T00:57:41.583Z,12.90
2022-09-18T01:00:11.882Z,13.00
2022-09-18T01:02:44.302Z,13.20
2022-09-18T01:05:14.063Z,13.30
2022-09-18T01:08:03.899Z,13.10
2022-09-18T01:10:52.956Z,12.90
2022-09-18T01:13:29.584Z,13.20
2022-09-18T01:16:04.763Z,13.20
2022-09-18T01:18:43.596Z,13.10
2022-09-18T01:21:14.235Z,13.10
2022-09-18T01:24:13.575Z,13.00
2022-09-18T01:26:53.256Z,13.20
2022-09-18T01:29:52.575Z,13.00
2022-09-18T01:32:27.020Z,13.00
2022-09-18T01:35:14.060Z,12.80
2022-09-18T01:37:57.603Z,12.70
2022-09-18T01:40:28.202Z,12.70
2022-09-18T01:43:00.714Z,13.00
2022-09-18T01:45:33.660Z,12.90
2022-09-18T01:48:05.808Z,12.90
2022-09-18T01:50:37.103Z,13.00
2022-09-18T01:53:11.163Z,13.00
2022-09-18T01:55:41.042Z,12.90
2022-09-18T01:58:12.937Z,12.90
2022-09-18T02:00:54.326Z,13.00
2022-09-18T02:03:28.534Z,13.20
2022-09-18T02:06:00.992Z,13.00
2022-09-18T02:08:33.367Z,12.90
2022-09-18T02:11:05.611Z,12.90
2022-09-18T02:13:38.875Z,12.90
2022-09-18T02:16:23.486Z,13.10
2022-09-18T02:18:55.036Z,12.90
2022-09-18T02:21:27.504Z,13.00
2022-09-18T02:23:58.788Z,13.00
2022-09-18T02:26:30.010Z,13.10
2022-09-18T02:29:03.744Z,12.70
2022-09-18T02:31:33.947Z,12.60
2022-09-18T02:34:02.255Z,12.80
2022-09-18T02:36:48.390Z,13.00
2022-09-18T02:39:35.019Z,13.20
2022-09-18T02:42:15.932Z,13.30
2022-09-18T02:44:52.419Z,13.20
2022-09-18T02:47:37.473Z,13.00
2022-09-18T02:50:24.475Z,13.00
2022-09-18T02:52:58.712Z,13.00
2022-09-18T02:55:30.642Z,13.00
2022-09-18T02:58:04.147Z,12.90
2022-09-18T03:00:33.787Z,12.80
2022-09-18T03:03:03.149Z,12.70
2022-09-18T03:05:31.028Z,12.90
2022-09-18T03:07:58.851Z,12.80
2022-09-18T03:10:27.152Z,12.80
2022-09-18T03:12:55.001Z,12.90
2022-09-18T03:15:24.966Z,13.10
2022-09-18T03:17:53.186Z,13.30
2022-09-18T03:20:25.209Z,13.20
2022-09-18T03:22:59.989Z,13.20
2022-09-18T03:25:30.952Z,13.10
2022-09-18T03:27:58.731Z,12.80
2022-09-18T03:30:27.002Z,13.00
2022-09-18T03:32:54.780Z,13.00
2022-09-18T03:35:26.343Z,12.90
2022-09-18T03:40:47.589Z,13.20
2022-09-18T03:43:21.180Z,13.20
2022-09-18T03:45:48.971Z,13.10
2022-09-18T03:48:16.779Z,13.30
2022-09-18T03:50:46.334Z,13.30
2022-09-18T03:53:14.170Z,13.10
2022-09-18T03:55:44.442Z,13.10
2022-09-18T03:58:25.604Z,13.10
2022-09-18T04:00:53.510Z,13.20
2022-09-18T04:03:24.546Z,13.30
2022-09-18T04:05:53.687Z,13.50
2022-09-18T04:08:31.068Z,13.60
2022-09-18T04:10:59.282Z,13.60
2022-09-18T04:13:27.610Z,13.70
2022-09-18T04:15:58.908Z,13.90
2022-09-18T04:18:29.174Z,13.80
2022-09-18T04:20:59.343Z,13.80
2022-09-18T04:23:29.474Z,13.60
2022-09-18T04:26:09.252Z,13.20
2022-09-18T04:28:37.364Z,13.00
2022-09-18T04:31:07.455Z,12.80
2022-09-18T04:36:22.089Z,12.90
2022-09-18T04:38:50.285Z,12.70
2022-09-18T04:41:18.080Z,12.80
2022-09-18T04:43:45.886Z,12.90
2022-09-18T04:46:14.130Z,12.80
2022-09-18T04:48:41.947Z,12.70
2022-09-18T04:51:09.742Z,12.50
2022-09-18T04:53:41.241Z,12.50
2022-09-18T04:56:09.062Z,12.40
2022-09-18T04:58:36.868Z,12.50
2022-09-18T05:01:05.134Z,12.50
2022-09-18T05:03:32.947Z,12.40
2022-09-18T05:06:02.796Z,12.40
2022-09-18T05:08:31.975Z,12.30
2022-09-18T05:11:04.414Z,12.30
2022-09-18T05:13:32.795Z,12.40
2022-09-18T05:16:00.677Z,12.50
2022-09-18T05:18:41.590Z,12.50
2022-09-18T05:21:10.944Z,12.70
2022-09-18T05:23:42.631Z,12.60
2022-09-18T05:26:14.468Z,12.50
2022-09-18T05:28:42.699Z,12.70
2022-09-18T05:31:10.922Z,12.80
2022-09-18T05:33:41.115Z,13.00
2022-09-18T05:36:15.535Z,13.10
2022-09-18T05:38:44.222Z,13.20
2022-09-18T05:41:15.653Z,13.00
2022-09-18T05:43:47.258Z,12.80
2022-09-18T05:46:15.352Z,12.90
2022-09-18T05:48:43.173Z,12.60
2022-09-18T05:51:10.981Z,12.80
2022-09-18T05:53:44.326Z,12.80
2022-09-18T05:56:13.972Z,12.80
2022-09-18T05:58:41.759Z,12.80
2022-09-18T06:01:09.746Z,12.80
2022-09-18T06:03:38.240Z,13.00
2022-09-18T06:06:06.300Z,12.70
2022-09-18T06:08:35.054Z,12.80
2022-09-18T06:11:03.869Z,12.70
2022-09-18T06:13:37.743Z,12.80
2022-09-18T06:16:11.578Z,12.90
2022-09-18T06:18:39.434Z,12.90
2022-09-18T06:21:07.286Z,13.10
2022-09-18T06:23:35.146Z,13.10
2022-09-18T06:26:05.342Z,13.10
2022-09-18T06:28:37.960Z,13.20
2022-09-18T06:31:06.552Z,12.90
2022-09-18T06:33:36.218Z,12.70
2022-09-18T06:36:08.686Z,12.70
2022-09-18T06:38:36.497Z,12.80
2022-09-18T06:41:04.302Z,12.80
2022-09-18T06:43:34.650Z,12.90
2022-09-18T06:46:04.515Z,12.70
2022-09-18T06:48:32.811Z,12.70
2022-09-18T06:51:03.520Z,12.80
2022-09-18T06:53:31.434Z,12.60
2022-09-18T06:56:01.920Z,12.50
2022-09-18T06:58:30.155Z,12.80
2022-09-18T07:01:00.574Z,12.90
2022-09-18T07:03:30.215Z,12.50
2022-09-18T07:05:58.072Z,12.80
2022-09-18T07:08:25.947Z,13.10
2022-09-18T07:11:01.650Z,12.90
2022-09-18T07:13:31.827Z,12.90
2022-09-18T07:16:00.368Z,13.00
2022-09-18T07:18:30.149Z,12.90
2022-09-18T07:20:59.840Z,13.00
2022-09-18T07:23:33.295Z,13.10
2022-09-18T07:26:01.619Z,13.20
2022-09-18T07:28:39.115Z,13.40
2022-09-18T07:31:07.971Z,13.40
2022-09-18T07:33:37.384Z,13.50
2022-09-18T07:36:06.595Z,13.20
2022-09-18T07:38:35.291Z,13.20
2022-09-18T07:41:03.411Z,13.20
2022-09-18T07:43:32.046Z,13.20
2022-09-18T07:46:00.393Z,13.10
2022-09-18T07:48:32.709Z,12.90
2022-09-18T07:51:03.113Z,13.00
2022-09-18T07:53:31.782Z,13.10
2022-09-18T07:56:02.895Z,13.20
2022-09-18T07:58:30.695Z,13.10
2022-09-18T08:01:02.064Z,13.20
2022-09-18T08:03:32.142Z,13.20
2022-09-18T08:06:01.631Z,13.20
2022-09-18T08:08:30.047Z,13.20
2022-09-18T08:10:58.094Z,13.40
2022-09-18T08:13:29.356Z,13.40
2022-09-18T08:15:57.840Z,13.60
2022-09-18T08:18:26.151Z,13.40
2022-09-18T08:20:56.812Z,13.30
2022-09-18T08:23:29.577Z,13.00
2022-09-18T08:25:57.345Z,13.00
2022-09-18T08:28:25.557Z,12.90
2022-09-18T08:30:53.976Z,13.00
2022-09-18T08:33:24.202Z,13.30
2022-09-18T08:36:00.450Z,13.50
2022-09-18T08:38:35.757Z,13.20
2022-09-18T08:41:19.298Z,13.00
2022-09-18T08:44:00.683Z,13.00
2022-09-18T08:46:37.189Z,13.10
2022-09-18T08:49:22.841Z,13.10
2022-09-18T08:51:58.109Z,13.20
2022-09-18T08:54:41.381Z,13.10
2022-09-18T08:57:17.290Z,13.30
2022-09-18T08:59:48.336Z,13.50
2022-09-18T09:02:45.393Z,13.70
2022-09-18T09:05:23.678Z,13.80
2022-09-18T09:08:17.934Z,13.80
2022-09-18T09:11:01.921Z,13.70
2022-09-18T09:14:00.156Z,13.80
2022-09-18T09:16:52.765Z,13.50
2022-09-18T09:19:50.387Z,13.50
2022-09-18T09:22:20.389Z,13.80
2022-09-18T09:25:02.558Z,14.00
2022-09-18T09:27:37.083Z,13.70
2022-09-18T09:30:07.819Z,13.60
2022-09-18T09:32:40.130Z,13.70
2022-09-18T09:35:23.162Z,13.70
2022-09-18T09:40:54.448Z,13.90
2022-09-18T09:43:28.882Z,13.80
2022-09-18T09:46:01.063Z,14.00
2022-09-18T09:48:37.070Z,13.90
2022-09-18T09:51:11.131Z,14.10
2022-09-18T09:53:39.167Z,14.20
2022-09-18T09:56:16.041Z,14.10
2022-09-18T09:58:57.085Z,14.10
2022-09-18T10:01:35.103Z,14.00
2022-09-18T10:04:17.747Z,14.00
2022-09-18T10:07:00.556Z,13.70
2022-09-18T10:09:41.098Z,13.80
2022-09-18T10:12:21.782Z,14.00
2022-09-18T10:14:53.835Z,14.00
2022-09-18T10:17:25.128Z,14.10
2022-09-18T10:19:54.027Z,14.20
2022-09-18T10:22:24.241Z,14.10
2022-09-18T10:25:02.834Z,14.10
2022-09-18T10:27:32.858Z,14.20
2022-09-18T10:30:07.654Z,14.10
2022-09-18T10:32:37.178Z,14.10
2022-09-18T10:35:43.812Z,14.00
2022-09-18T10:38:32.307Z,14.20
2022-09-18T10:41:31.565Z,13.90
2022-09-18T10:44:09.699Z,14.00
2022-09-18T10:46:58.576Z,14.10
2022-09-18T10:49:32.933Z,14.10
2022-09-18T10:52:32.255Z,13.80
2022-09-18T10:55:05.967Z,14.00
2022-09-18T10:57:36.394Z,14.00
2022-09-18T11:00:29.912Z,14.10
2022-09-18T11:03:04.947Z,14.20
2022-09-18T11:05:36.537Z,14.30
2022-09-18T11:08:12.799Z,14.20
2022-09-18T11:10:43.207Z,14.10
2022-09-18T11:13:25.082Z,14.10
2022-09-18T11:15:56.115Z,14.30
2022-09-18T11:18:26.854Z,14.40
2022-09-18T11:21:00.256Z,14.40
2022-09-18T11:23:30.127Z,14.40
2022-09-18T11:26:21.158Z,14.50
2022-09-18T11:29:02.723Z,14.50
2022-09-18T11:31:41.539Z,14.40
2022-09-18T11:34:22.614Z,14.20
2022-09-18T11:36:53.229Z,14.10
2022-09-18T11:39:31.994Z,14.00
2022-09-18T11:42:02.670Z,14.00
2022-09-18T11:44:33.929Z,13.90
2022-09-18T11:47:37.571Z,13.80
2022-09-18T11:50:14.975Z,14.00
2022-09-18T11:52:45.339Z,14.10
2022-09-18T11:55:26.496Z,14.10
2022-09-18T11:57:58.527Z,14.20
2022-09-18T12:00:32.997Z,14.00
2022-09-18T12:03:08.328Z,14.10
2022-09-18T12:05:54.542Z,14.20
2022-09-18T12:08:28.010Z,14.20
2022-09-18T12:11:09.599Z,14.20
2022-09-18T12:13:46.951Z,14.30
2022-09-18T12:16:23.285Z,14.10
2022-09-18T12:19:03.384Z,14.20
2022-09-18T12:21:55.749Z,14.10
2022-09-18T12:24:24.056Z,14.30
2022-09-18T12:27:07.104Z,14.10
2022-09-18T12:29:50.231Z,13.80
2022-09-18T12:32:47.061Z,13.90
2022-09-18T12:35:22.373Z,14.00
2022-09-18T12:38:01.833Z,14.10
2022-09-18T12:40:42.315Z,14.20
2022-09-18T12:43:34.259Z,14.00
2022-09-18T12:46:36.627Z,13.90
2022-09-18T12:49:22.795Z,13.60
2022-09-18T12:52:03.241Z,13.70
2022-09-18T12:55:00.841Z,13.60
2022-09-18T12:57:42.009Z,13.70
2022-09-18T13:00:14.692Z,13.70
2022-09-18T13:02:51.608Z,13.50
2022-09-18T13:05:25.213Z,13.60
2022-09-18T13:07:57.723Z,13.80
2022-09-18T13:10:33.464Z,13.70
2022-09-18T13:13:12.323Z,13.80
2022-09-18T13:15:45.586Z,13.90
2022-09-18T13:18:27.701Z,13.90
2022-09-18T13:20:58.839Z,13.80
2022-09-18T13:23:30.934Z,13.90
2022-09-18T13:26:02.139Z,13.80
2022-09-18T13:28:30.463Z,13.90
2022-09-18T13:31:28.213Z,13.90
2022-09-18T13:33:58.598Z,13.70
2022-09-18T13:36:35.602Z,13.70
2022-09-18T13:39:07.025Z,13.40
2022-09-18T13:41:48.671Z,13.50
2022-09-18T13:44:24.126Z,13.70
2022-09-18T13:46:54.449Z,13.80
2022-09-18T13:49:28.606Z,13.90
2022-09-18T13:51:56.646Z,13.80
2022-09-18T13:54:28.610Z,13.90
2022-09-18T13:57:20.801Z,13.80
2022-09-18T13:59:51.990Z,13.70
2022-09-18T14:02:43.635Z,13.90
2022-09-18T14:05:31.536Z,13.90
2022-09-18T14:08:35.930Z,13.90
2022-09-18T14:11:17.247Z,14.00
2022-09-18T14:13:56.631Z,14.20
2022-09-18T14:16:29.924Z,14.10
2022-09-18T14:19:02.984Z,14.20
2022-09-18T14:21:32.996Z,14.10
2022-09-18T14:24:07.245Z,14.10
2022-09-18T14:27:00.981Z,14.00
2022-09-18T14:29:50.103Z,13.70
2022-09-18T14:32:20.157Z,14.00
2022-09-18T14:34:56.221Z,13.80
2022-09-18T14:37:27.319Z,13.80
2022-09-18T14:39:56.918Z,13.50
2022-09-18T14:42:32.591Z,13.40
2022-09-18T14:45:23.610Z,13.20
2022-09-18T14:47:51.942Z,13.30
2022-09-18T14:50:31.682Z,13.50
2022-09-18T14:53:01.564Z,13.40
2022-09-18T14:55:33.850Z,13.40
2022-09-18T14:58:06.820Z,13.30
2022-09-18T15:00:37.755Z,13.30
2022-09-18T15:03:08.747Z,13.20
2022-09-18T15:05:37.225Z,13.20
2022-09-18T15:08:09.302Z,13.20
2022-09-18T15:10:40.202Z,13.20
2022-09-18T15:13:14.852Z,13.00
2022-09-18T15:15:46.458Z,12.80
2022-09-18T15:18:23.911Z,13.00
2022-09-18T15:20:53.290Z,12.90
2022-09-18T15:23:26.513Z,12.80
2022-09-18T15:25:56.972Z,12.90
2022-09-18T15:28:27.081Z,13.10
2022-09-18T15:31:00.288Z,13.20
2022-09-18T15:33:29.053Z,13.10
2022-09-18T15:35:57.400Z,13.10
2022-09-18T15:38:37.743Z,12.90
2022-09-18T15:41:23.476Z,12.80
2022-09-18T15:43:53.712Z,12.90
2022-09-18T15:46:28.893Z,12.80
2022-09-18T15:49:00.257Z,13.00
2022-09-18T15:51:32.515Z,13.10
2022-09-18T15:54:07.470Z,13.00
2022-09-18T15:56:36.561Z,13.10
2022-09-18T15:59:07.425Z,13.10
2022-09-18T16:01:40.477Z,13.20
2022-09-18T16:04:17.968Z,13.20
2022-09-18T16:06:53.792Z,13.20
2022-09-18T16:09:37.211Z,13.20
2022-09-18T16:12:33.348Z,13.10
2022-09-18T16:15:14.127Z,13.10
2022-09-18T16:17:56.387Z,13.10
2022-09-18T16:20:30.154Z,13.10
2022-09-18T16:23:05.782Z,12.90
2022-09-18T16:25:38.335Z,12.90
2022-09-18T16:28:16.729Z,13.00
2022-09-18T16:30:48.444Z,12.80
2022-09-18T16:33:23.847Z,12.90
2022-09-18T16:35:59.390Z,12.80
2022-09-18T16:38:38.505Z,12.80
2022-09-18T16:41:12.752Z,12.90
2022-09-18T16:43:40.996Z,12.80
2022-09-18T16:46:13.961Z,12.60
2022-09-18T16:48:45.665Z,12.70
2022-09-18T16:51:13.877Z,12.50
2022-09-18T16:53:41.799Z,12.70
2022-09-18T16:56:15.951Z,12.50
2022-09-18T16:58:45.454Z,12.70
2022-09-18T17:01:18.905Z,12.70
2022-09-18T17:03:48.159Z,12.50
2022-09-18T17:06:18.789Z,12.30
2022-09-18T17:08:47.539Z,12.50
2022-09-18T17:11:18.973Z,12.70
2022-09-18T17:13:47.174Z,12.60
2022-09-18T17:16:26.236Z,12.30
2022-09-18T17:19:04.406Z,12.40
2022-09-18T17:21:34.975Z,12.20
2022-09-18T17:24:03.204Z,12.00
2022-09-18T17:26:31.972Z,11.90
2022-09-18T17:29:00.117Z,11.70
2022-09-18T17:31:28.095Z,11.80
2022-09-18T17:34:08.831Z,11.70
2022-09-18T17:48:24.920Z,11.60
2022-09-18T17:51:00.603Z,11.40
2022-09-18T17:53:29.451Z,11.70
2022-09-18T17:56:07.005Z,11.80
2022-09-18T17:58:42.645Z,11.50
2022-09-18T18:01:13.934Z,11.50
2022-09-18T18:03:49.855Z,11.60
2022-09-18T18:06:21.691Z,11.90
2022-09-18T18:08:54.582Z,12.20
2022-09-18T18:11:26.124Z,11.90
2022-09-18T18:13:56.173Z,11.80
2022-09-18T18:16:30.495Z,11.80
2022-09-18T18:19:03.092Z,11.70
2022-09-18T18:21:32.271Z,11.60
2022-09-18T18:24:01.501Z,11.30
2022-09-18T18:26:35.350Z,11.40
2022-09-18T18:29:03.516Z,11.50
2022-09-18T18:31:33.102Z,11.40
2022-09-18T18:34:01.590Z,11.40
2022-09-18T18:36:33.609Z,11.20
2022-09-18T18:39:10.594Z,11.30
2022-09-18T18:42:27.304Z,11.30
2022-09-18T18:44:58.319Z,11.20
2022-09-18T18:47:31.874Z,11.40
2022-09-18T18:50:02.619Z,11.40
2022-09-18T18:52:31.648Z,11.50
2022-09-18T18:55:02.289Z,11.50
2022-09-18T19:00:17.050Z,11.60
2022-09-18T19:06:28.216Z,12.10
2022-09-18T19:09:01.187Z,12.20
2022-09-18T19:11:36.032Z,12.10
2022-09-18T19:14:08.412Z,12.00
2022-09-18T19:16:39.659Z,11.80
2022-09-18T19:19:31.133Z,11.70
2022-09-18T19:22:18.110Z,11.90
2022-09-18T19:24:48.502Z,11.80
2022-09-18T19:27:16.408Z,11.60
2022-09-18T19:29:44.232Z,11.50
2022-09-18T19:32:12.664Z,11.30
2022-09-18T19:34:42.993Z,11.10
2022-09-18T19:37:18.255Z,11.10
2022-09-18T19:39:50.190Z,11.00
2022-09-18T19:42:18.257Z,11.30
2022-09-18T19:44:52.111Z,11.00
2022-09-18T19:47:31.163Z,11.10
2022-09-18T19:50:07.625Z,11.00
2022-09-18T19:52:46.019Z,11.20
2022-09-18T19:55:17.157Z,11.10
2022-09-18T19:57:45.956Z,11.10
2022-09-18T20:00:14.489Z,11.10
2022-09-18T20:02:43.729Z,10.90
2022-09-18T20:05:13.697Z,11.10
2022-09-18T20:07:48.245Z,11.10
2022-09-18T20:10:17.077Z,11.10
2022-09-18T20:12:45.291Z,10.90
2022-09-18T20:15:16.485Z,10.80
2022-09-18T20:17:46.484Z,10.90
2022-09-18T20:20:25.005Z,10.70
2022-09-18T20:22:58.049Z,10.70
2022-09-18T20:25:26.459Z,11.00
2022-09-18T20:27:54.377Z,10.90
2022-09-18T20:30:22.265Z,10.80
2022-09-18T20:32:50.150Z,10.70
2022-09-18T20:35:21.216Z,10.70
2022-09-18T20:37:51.960Z,10.90
2022-09-18T20:40:23.509Z,11.00
2022-09-18T20:42:55.502Z,10.90
2022-09-18T20:45:27.257Z,11.00
2022-09-18T20:48:06.384Z,10.90
2022-09-18T20:50:34.887Z,11.10
2022-09-18T20:53:08.088Z,11.20
2022-09-18T20:55:49.726Z,11.40
2022-09-18T20:58:20.546Z,11.20
2022-09-18T21:01:02.304Z,11.20
2022-09-18T21:03:30.708Z,11.40
2022-09-18T21:06:21.851Z,11.60
2022-09-18T21:08:53.791Z,11.90
2022-09-18T21:11:30.138Z,12.00
2022-09-18T21:14:00.084Z,11.80
2022-09-18T21:16:29.738Z,11.50
2022-09-18T21:19:00.202Z,11.50
2022-09-18T21:21:30.832Z,11.50
2022-09-18T21:24:02.464Z,11.60
2022-09-18T21:26:34.554Z,11.70
2022-09-18T21:29:04.582Z,11.80
2022-09-18T21:31:42.812Z,11.90
2022-09-18T21:34:15.678Z,12.00
2022-09-18T21:36:46.514Z,12.00
2022-09-18T21:39:15.253Z,11.70
2022-09-18T21:41:45.965Z,11.80
2022-09-18T21:44:16.136Z,11.90
2022-09-18T21:46:46.486Z,11.90
2022-09-18T21:49:21.559Z,11.90
2022-09-18T21:51:50.497Z,12.00
2022-09-18T21:54:20.153Z,11.90
2022-09-18T21:56:54.056Z,11.90
2022-09-18T21:59:28.858Z,12.00
2022-09-18T22:01:56.867Z,11.80
2022-09-18T22:04:27.669Z,11.80
2022-09-18T22:06:58.696Z,12.00
2022-09-18T22:09:28.676Z,11.90
2022-09-18T22:12:02.226Z,12.00
2022-09-18T22:14:32.228Z,11.90
2022-09-18T22:17:06.992Z,11.80
2022-09-18T22:19:38.010Z,11.90
2022-09-18T22:22:11.854Z,11.90
2022-09-18T22:24:39.885Z,11.90
2022-09-18T22:27:15.248Z,11.80
2022-09-18T22:29:46.513Z,11.80
2022-09-18T22:32:14.328Z,11.70
2022-09-18T22:34:44.905Z,11.70
2022-09-18T22:37:13.108Z,11.80
2022-09-18T22:39:40.893Z,11.90
2022-09-18T22:42:10.217Z,11.80
2022-09-18T22:44:40.404Z,12.00
2022-09-18T22:47:09.441Z,12.10
2022-09-18T22:49:37.785Z,12.10
2022-09-18T22:52:05.739Z,12.20
2022-09-18T22:54:33.672Z,12.30
2022-09-18T22:57:09.352Z,12.20
2022-09-18T22:59:38.483Z,11.90
2022-09-18T23:02:07.894Z,11.90
2022-09-18T23:04:36.578Z,12.00
2022-09-18T23:07:04.531Z,12.00
2022-09-18T23:09:32.356Z,12.10
2022-09-18T23:12:03.904Z,12.10
2022-09-18T23:14:32.167Z,12.00
2022-09-18T23:17:01.945Z,12.20
2022-09-18T23:22:17.182Z,12.00
2022-09-18T23:24:46.178Z,12.20
2022-09-18T23:27:14.051Z,12.10
2022-09-18T23:29:44.511Z,11.90
2022-09-18T23:32:14.190Z,12.00
2022-09-18T23:34:47.161Z,11.80
2022-09-18T23:37:14.951Z,11.90
2022-09-18T23:39:42.741Z,11.90
2022-09-18T23:42:14.032Z,12.00
2022-09-18T23:44:44.146Z,12.20
2022-09-18T23:47:18.780Z,12.10
2022-09-18T23:49:49.649Z,12.00
2022-09-18T23:52:17.447Z,12.10
2022-09-18T23:54:48.070Z,12.10
2022-09-18T23:57:15.966Z,12.10
2022-09-18T23:59:46.071Z,11.90
